Time;durP1;ratioP1;P1;durP2;ratioP2;P2;SDS_P1;SDS_P2;PMS_P1;PMS_P2;Temp;Humidity;BMP_temperature;BMP_pressure;BME280_temperature;BME280_humidity;BME280_pressure;Samples;Min_cycle;Max_cycle;Signal;HPM_P1;HPM_P2
2022/05/29 00:00:45;;;;;;;1.20;1.10;;;21.60;57.40;;;;;;5086050;28;43662;-70
2022/05/29 00:03:13;;;;;;;1.10;1.10;;;21.50;57.60;;;;;;5086009;28;43946;-70
2022/05/29 00:05:44;;;;;;;1.17;1.17;;;21.30;57.80;;;;;;5086221;28;43766;-70
2022/05/29 00:08:13;;;;;;;1.20;1.20;;;21.30;58.10;;;;;;5086741;27;44040;-70
2022/05/29 00:10:42;;;;;;;1.00;1.00;;;21.20;58.20;;;;;;5089482;28;45130;-70
2022/05/29 00:13:12;;;;;;;1.20;1.20;;;21.20;58.40;;;;;;5089400;28;44096;-70
2022/05/29 00:15:40;;;;;;;1.20;1.20;;;21.10;58.60;;;;;;5090011;28;44129;-69
2022/05/29 00:18:09;;;;;;;1.00;1.00;;;21.10;58.70;;;;;;5089887;28;43926;-70
2022/05/29 00:20:36;;;;;;;1.10;1.10;;;21.00;58.60;;;;;;5104062;27;45118;-69
2022/05/29 00:23:05;;;;;;;1.20;1.20;;;21.00;58.80;;;;;;5109096;27;44142;-70
2022/05/29 00:25:32;;;;;;;1.30;1.30;;;21.00;58.80;;;;;;5109481;27;43910;-70
2022/05/29 00:28:00;;;;;;;1.10;1.10;;;21.00;58.90;;;;;;5110128;27;44534;-70
2022/05/29 00:30:30;;;;;;;1.20;1.20;;;21.00;58.90;;;;;;5109209;27;43954;-70
2022/05/29 00:32:58;;;;;;;1.07;0.93;;;21.00;59.00;;;;;;5109077;27;43957;-70
2022/05/29 00:35:25;;;;;;;1.00;1.00;;;20.90;58.90;;;;;;5108824;27;44113;-70
2022/05/29 00:37:53;;;;;;;1.13;1.13;;;21.00;59.20;;;;;;5109563;27;43397;-70
2022/05/29 00:40:27;;;;;;;1.10;1.10;;;21.00;60.60;;;;;;5108919;27;44044;-71
2022/05/29 00:42:55;;;;;;;1.20;1.20;;;21.10;60.60;;;;;;5108840;27;43973;-69
2022/05/29 00:45:27;;;;;;;1.10;1.10;;;21.20;60.20;;;;;;5106655;27;43475;-71
2022/05/29 00:47:56;;;;;;;1.10;1.10;;;21.40;59.80;;;;;;5089287;27;43430;-71
2022/05/29 00:50:24;;;;;;;0.90;0.90;;;21.60;59.40;;;;;;5070218;27;44203;-71
2022/05/29 00:52:52;;;;;;;1.20;1.20;;;21.80;59.00;;;;;;5089072;27;44026;-70
2022/05/29 00:55:22;;;;;;;1.10;1.00;;;21.90;58.70;;;;;;5089320;27;44068;-69
2022/05/29 00:57:53;;;;;;;1.10;1.10;;;22.00;58.20;;;;;;5089507;27;44054;-70
2022/05/29 01:00:23;;;;;;;1.10;1.10;;;22.10;57.80;;;;;;5088935;27;43896;-70
2022/05/29 01:02:51;;;;;;;1.20;1.20;;;22.20;57.60;;;;;;5088886;27;43941;-71
2022/05/29 01:05:21;;;;;;;1.57;1.17;;;22.30;57.30;;;;;;5089138;27;43947;-71
2022/05/29 01:07:51;;;;;;;1.10;1.10;;;22.20;57.30;;;;;;5071133;28;43928;-71
2022/05/29 01:10:19;;;;;;;1.03;1.03;;;22.10;57.60;;;;;;5088980;27;44056;-70
2022/05/29 01:12:53;;;;;;;0.80;0.80;;;22.00;58.10;;;;;;5088556;27;44013;-69
2022/05/29 01:15:27;;;;;;;1.10;1.10;;;21.80;58.00;;;;;;5100886;27;44024;-70
2022/05/29 01:17:59;;;;;;;1.30;1.30;;;21.60;57.80;;;;;;5099998;27;43469;-70
2022/05/29 01:20:46;;;;;;;1.10;1.10;;;21.40;58.00;;;;;;5088206;27;43916;-70
2022/05/29 01:23:29;;;;;;;1.00;1.00;;;21.30;58.30;;;;;;5070065;27;45093;-71
2022/05/29 01:26:23;;;;;;;1.00;1.00;;;21.20;58.50;;;;;;5088727;27;43964;-70
2022/05/29 01:28:54;;;;;;;1.10;1.10;;;21.20;58.80;;;;;;5103916;27;43441;-70
2022/05/29 01:31:35;;;;;;;1.10;1.10;;;21.10;59.00;;;;;;5108270;27;43771;-70
2022/05/29 01:34:24;;;;;;;0.97;0.97;;;21.00;59.00;;;;;;5108082;27;44000;-71
2022/05/29 01:36:55;;;;;;;1.03;1.03;;;21.00;59.20;;;;;;5088251;27;43361;-71
2022/05/29 01:39:25;;;;;;;1.27;1.17;;;21.00;59.30;;;;;;5088562;28;43463;-70
2022/05/29 01:41:56;;;;;;;1.17;1.17;;;20.90;59.30;;;;;;5087474;28;44239;-71
2022/05/29 01:44:27;;;;;;;0.93;0.93;;;20.90;59.40;;;;;;5088036;28;43982;-72
2022/05/29 01:46:56;;;;;;;1.03;1.03;;;20.90;59.40;;;;;;5087923;28;43910;-69
2022/05/29 01:49:26;;;;;;;1.10;1.10;;;20.90;59.50;;;;;;5088288;28;43449;-69
2022/05/29 01:51:55;;;;;;;1.20;1.20;;;20.90;59.50;;;;;;5087797;28;44082;-71
2022/05/29 01:54:25;;;;;;;1.03;1.03;;;20.90;59.60;;;;;;5087433;28;44084;-70
2022/05/29 01:56:55;;;;;;;1.00;1.00;;;20.90;59.60;;;;;;5087383;28;43843;-70
2022/05/29 01:59:27;;;;;;;1.00;1.00;;;20.90;59.60;;;;;;5088201;28;44007;-70
2022/05/29 02:01:59;;;;;;;1.00;1.00;;;20.90;60.10;;;;;;5104101;27;43641;-71
2022/05/29 02:04:27;;;;;;;1.20;1.20;;;20.90;61.20;;;;;;5107685;27;44119;-70
2022/05/29 02:09:41;;;;;;;1.00;1.00;;;21.20;60.50;;;;;;5108248;27;44001;-70
2022/05/29 02:12:12;;;;;;;1.10;1.10;;;21.40;60.10;;;;;;5107390;27;43952;-70
2022/05/29 02:14:43;;;;;;;1.07;1.07;;;21.60;59.80;;;;;;5069651;28;44249;-71
2022/05/29 02:17:13;;;;;;;1.10;1.10;;;21.70;59.20;;;;;;5094511;27;43980;-69
2022/05/29 02:19:42;;;;;;;1.07;1.07;;;21.90;59.00;;;;;;5088247;27;43969;-70
2022/05/29 02:22:12;;;;;;;1.20;1.20;;;22.00;58.60;;;;;;5087733;27;44097;-70
2022/05/29 02:24:43;;;;;;;1.17;1.17;;;22.10;58.20;;;;;;5087918;27;43840;-71
2022/05/29 02:27:13;;;;;;;1.13;1.13;;;22.20;58.00;;;;;;5087850;27;43974;-70
2022/05/29 02:29:42;;;;;;;0.93;0.93;;;22.20;58.00;;;;;;5089770;27;43401;-71
2022/05/29 02:32:13;;;;;;;1.10;1.10;;;22.00;58.00;;;;;;5106087;27;44061;-70
2022/05/29 02:34:43;;;;;;;0.90;0.90;;;21.90;58.50;;;;;;5107254;27;44001;-70
2022/05/29 02:37:15;;;;;;;1.17;1.17;;;21.70;58.00;;;;;;5106917;27;44056;-71
2022/05/29 02:39:48;;;;;;;0.90;0.90;;;21.50;58.20;;;;;;5107560;27;44049;-70
2022/05/29 02:42:20;;;;;;;1.33;1.33;;;21.30;58.40;;;;;;5106929;27;43898;-70
2022/05/29 02:44:54;;;;;;;1.10;1.10;;;21.20;58.80;;;;;;5107055;27;43605;-70
2022/05/29 02:47:27;;;;;;;1.40;1.40;;;21.10;59.00;;;;;;5107041;27;43453;-71
2022/05/29 02:50:07;;;;;;;1.30;1.30;;;21.10;59.20;;;;;;5107534;27;44020;-70
2022/05/29 02:52:35;;;;;;;1.27;1.27;;;21.00;59.40;;;;;;5106833;27;43918;-69
2022/05/29 02:55:02;;;;;;;1.10;1.10;;;20.90;59.50;;;;;;5106859;27;43421;-70
2022/05/29 02:57:30;;;;;;;1.00;1.00;;;20.90;59.60;;;;;;5088258;27;44072;-71
2022/05/29 03:00:07;;;;;;;1.60;1.10;;;20.90;59.70;;;;;;5107427;27;43948;-71
2022/05/29 03:02:38;;;;;;;1.20;1.20;;;20.90;60.40;;;;;;5106576;27;43932;-70
2022/05/29 03:05:14;;;;;;;1.10;1.10;;;20.90;59.80;;;;;;5086225;27;44066;-70
2022/05/29 03:07:46;;;;;;;1.10;1.10;;;20.80;59.80;;;;;;5087229;27;43907;-71
2022/05/29 03:10:17;;;;;;;1.07;1.07;;;20.80;60.40;;;;;;5069085;28;43534;-70
2022/05/29 03:12:50;;;;;;;1.23;1.23;;;20.80;59.80;;;;;;5087034;27;45180;-70
2022/05/29 03:15:29;;;;;;;1.00;1.00;;;20.80;59.90;;;;;;5087165;27;43954;-70
2022/05/29 03:18:05;;;;;;;1.70;1.10;;;20.80;59.90;;;;;;5068310;28;44033;-70
2022/05/29 03:20:40;;;;;;;2.23;1.10;;;20.80;59.90;;;;;;5087542;27;44031;-71
2022/05/29 03:23:12;;;;;;;1.30;1.30;;;20.80;61.20;;;;;;5086939;27;44063;-71
2022/05/29 03:25:42;;;;;;;1.20;1.20;;;20.90;61.60;;;;;;5087044;27;43896;-71
2022/05/29 03:28:24;;;;;;;1.90;1.20;;;21.10;61.00;;;;;;5087179;27;43426;-70
2022/05/29 03:30:53;;;;;;;3.13;1.60;;;21.30;60.80;;;;;;5087110;27;43340;-70
2022/05/29 03:33:21;;;;;;;2.27;1.77;;;21.50;60.10;;;;;;5068256;28;47249;-70
2022/05/29 03:36:03;;;;;;;4.37;2.43;;;21.60;59.60;;;;;;5086241;27;43936;-70
2022/05/29 03:38:31;;;;;;;5.07;2.50;;;21.80;59.20;;;;;;5086287;27;43404;-70
2022/05/29 03:40:59;;;;;;;6.37;2.93;;;21.90;58.80;;;;;;5086818;28;43840;-70
2022/05/29 03:43:27;;;;;;;6.47;3.00;;;22.00;58.40;;;;;;5102293;27;43904;-70
2022/05/29 03:45:56;;;;;;;6.23;3.47;;;22.10;58.30;;;;;;5090096;27;43929;-70
2022/05/29 03:48:24;;;;;;;9.00;3.60;;;22.00;58.30;;;;;;5089819;28;43893;-70
2022/05/29 03:50:52;;;;;;;7.00;3.70;;;21.90;58.80;;;;;;5090390;28;44015;-71
2022/05/29 03:53:20;;;;;;;7.23;3.13;;;21.60;58.80;;;;;;5090161;27;44300;-70
2022/05/29 03:55:48;;;;;;;5.67;3.80;;;21.50;58.50;;;;;;5071617;27;44784;-70
2022/05/29 03:58:16;;;;;;;7.20;3.60;;;21.30;58.70;;;;;;5090099;27;43958;-70
2022/05/29 04:00:44;;;;;;;7.23;4.20;;;21.20;59.00;;;;;;5089892;28;43934;-70
2022/05/29 04:03:13;;;;;;;8.37;4.40;;;21.10;59.20;;;;;;5089897;28;43984;-70
2022/05/29 04:05:41;;;;;;;9.17;4.20;;;21.00;59.40;;;;;;5090323;27;43896;-70
2022/05/29 04:13:42;;;;;;;7.77;4.33;;;20.90;59.90;;;;;;5089892;27;43973;-70
2022/05/29 04:16:10;;;;;;;6.90;4.70;;;20.80;60.00;;;;;;5071883;28;46030;-70
2022/05/29 04:18:39;;;;;;;8.43;4.20;;;20.80;60.10;;;;;;5090283;27;44018;-71
2022/05/29 04:21:07;;;;;;;8.80;4.40;;;20.80;60.10;;;;;;5090827;27;43508;-70
2022/05/29 04:23:35;;;;;;;8.10;4.10;;;20.80;60.20;;;;;;5095469;27;43973;-70
2022/05/29 04:26:03;;;;;;;9.07;4.27;;;20.80;60.30;;;;;;5109442;27;43943;-70
2022/05/29 04:28:31;;;;;;;9.17;4.47;;;20.80;60.30;;;;;;5097563;27;44039;-70
2022/05/29 04:30:59;;;;;;;9.60;4.43;;;20.70;60.20;;;;;;5090139;27;43872;-71
2022/05/29 04:33:27;;;;;;;6.80;4.23;;;20.70;60.30;;;;;;5070718;28;45953;-70
2022/05/29 04:35:57;;;;;;;8.93;4.27;;;20.70;61.60;;;;;;5089377;27;43872;-70
2022/05/29 04:38:25;;;;;;;7.73;4.23;;;20.80;62.00;;;;;;5089743;27;43854;-69
2022/05/29 04:40:53;;;;;;;4.60;3.47;;;20.90;61.60;;;;;;5109436;27;43926;-70
2022/05/29 04:43:21;;;;;;;6.47;3.93;;;21.10;61.10;;;;;;5089597;27;43970;-70
2022/05/29 04:45:53;;;;;;;8.47;4.00;;;21.30;60.70;;;;;;5089017;27;43994;-70
2022/05/29 04:48:21;;;;;;;7.03;3.93;;;21.50;60.20;;;;;;5109217;27;44034;-70
2022/05/29 04:50:57;;;;;;;9.97;4.23;;;21.60;59.70;;;;;;5109882;27;43947;-70
2022/05/29 04:53:25;;;;;;;5.80;3.97;;;21.80;59.30;;;;;;5108665;27;44287;-70
2022/05/29 04:55:53;;;;;;;7.33;4.03;;;21.90;58.90;;;;;;5108401;27;43995;-70
2022/05/29 04:58:21;;;;;;;6.63;3.80;;;22.00;58.70;;;;;;5102310;27;44008;-70
2022/05/29 05:00:49;;;;;;;7.23;3.90;;;22.10;58.40;;;;;;5108905;27;43972;-70
2022/05/29 05:03:17;;;;;;;6.57;3.70;;;22.10;58.40;;;;;;5088843;27;43597;-70
2022/05/29 05:05:47;;;;;;;4.60;3.43;;;22.10;58.40;;;;;;5089413;27;44053;-70
2022/05/29 05:08:16;;;;;;;6.73;3.97;;;21.90;58.60;;;;;;5090035;27;43900;-71
2022/05/29 05:10:44;;;;;;;5.00;3.67;;;21.80;58.90;;;;;;5109215;27;43999;-70
2022/05/29 05:13:12;;;;;;;7.23;4.13;;;21.60;58.60;;;;;;5089869;27;46221;-70
2022/05/29 05:15:40;;;;;;;4.27;3.70;;;21.40;58.70;;;;;;5108968;27;43975;-70
2022/05/29 05:18:08;;;;;;;5.17;3.10;;;21.30;59.00;;;;;;5095778;27;43752;-70
2022/05/29 05:20:37;;;;;;;4.03;3.07;;;21.10;59.20;;;;;;5108898;27;43973;-70
2022/05/29 05:23:05;;;;;;;5.87;3.27;;;21.00;59.40;;;;;;5089804;27;44154;-70
2022/05/29 05:25:34;;;;;;;4.77;3.40;;;21.00;59.70;;;;;;5108754;27;44086;-70
2022/05/29 05:28:02;;;;;;;3.50;3.20;;;20.90;59.80;;;;;;5108577;27;43973;-70
2022/05/29 05:30:32;;;;;;;5.50;3.27;;;20.90;60.00;;;;;;5109110;27;43380;-70
2022/05/29 05:33:00;;;;;;;5.60;3.47;;;20.80;60.10;;;;;;5108088;27;43926;-70
2022/05/29 05:35:28;;;;;;;5.60;3.43;;;20.80;60.20;;;;;;5092681;27;43753;-70
2022/05/29 05:37:57;;;;;;;4.57;3.27;;;20.80;60.30;;;;;;5088902;27;44375;-70
2022/05/29 05:40:25;;;;;;;4.17;3.10;;;20.80;60.40;;;;;;5089071;27;44013;-70
2022/05/29 05:42:55;;;;;;;4.10;3.33;;;20.70;60.40;;;;;;5088496;27;43919;-70
2022/05/29 05:45:23;;;;;;;3.83;3.00;;;20.70;60.40;;;;;;5088468;27;44054;-70
2022/05/29 05:47:51;;;;;;;5.90;3.40;;;20.70;60.40;;;;;;5090668;27;43402;-70
2022/05/29 05:50:19;;;;;;;3.40;2.97;;;20.70;60.50;;;;;;5108528;27;43867;-70
2022/05/29 05:52:49;;;;;;;3.67;3.20;;;20.70;60.60;;;;;;5108130;27;43934;-70
2022/05/29 05:55:17;;;;;;;5.13;3.47;;;20.70;60.60;;;;;;5108157;27;43946;-70
2022/05/29 05:57:45;;;;;;;4.77;3.03;;;20.70;60.60;;;;;;5091952;27;43312;-70
2022/05/29 06:00:15;;;;;;;3.33;2.93;;;20.70;61.50;;;;;;5088594;27;43927;-70
2022/05/29 06:02:43;;;;;;;3.97;2.77;;;20.70;61.90;;;;;;5088369;27;44301;-69
2022/05/29 06:05:12;;;;;;;3.20;2.90;;;20.90;62.10;;;;;;5088123;27;43906;-70
2022/05/29 06:07:39;;;;;;;3.60;3.10;;;21.10;61.60;;;;;;5087815;27;44002;-70
2022/05/29 06:10:08;;;;;;;2.83;2.63;;;21.20;60.90;;;;;;5105152;27;43956;-69
2022/05/29 06:12:37;;;;;;;2.87;2.60;;;21.40;60.40;;;;;;5107754;27;43996;-71
2022/05/29 06:15:05;;;;;;;4.07;2.90;;;21.50;60.00;;;;;;5107348;27;43990;-70
2022/05/29 06:17:35;;;;;;;3.37;2.43;;;21.70;59.60;;;;;;5107370;27;44350;-70
2022/05/29 06:20:03;;;;;;;2.83;2.63;;;21.80;59.20;;;;;;5108010;27;44004;-70
2022/05/29 06:22:31;;;;;;;3.90;2.93;;;21.90;58.90;;;;;;5107622;27;44002;-69
2022/05/29 06:24:59;;;;;;;3.00;2.70;;;21.90;58.90;;;;;;5107034;27;44139;-70
2022/05/29 06:27:28;;;;;;;2.63;2.43;;;21.80;59.00;;;;;;5107594;27;43973;-70
2022/05/29 06:29:57;;;;;;;2.83;2.40;;;21.60;59.20;;;;;;5107909;27;43895;-70
2022/05/29 06:32:25;;;;;;;2.93;2.60;;;21.50;59.60;;;;;;5107246;27;44028;-70
2022/05/29 06:34:54;;;;;;;2.77;2.57;;;21.30;59.20;;;;;;5100602;27;43933;-70
2022/05/29 06:37:22;;;;;;;2.90;2.70;;;21.10;59.50;;;;;;5106691;27;43900;-70
2022/05/29 06:39:55;;;;;;;3.40;2.37;;;21.00;59.80;;;;;;5107769;27;43989;-69
2022/05/29 06:42:27;;;;;;;3.97;2.80;;;20.90;60.00;;;;;;5102049;27;43587;-70
2022/05/29 06:44:55;;;;;;;4.23;2.80;;;20.80;60.20;;;;;;5087831;27;43904;-70
2022/05/29 06:47:23;;;;;;;2.60;2.40;;;20.80;60.50;;;;;;5087272;27;44025;-70
2022/05/29 06:49:51;;;;;;;2.43;2.20;;;20.70;60.50;;;;;;5069703;28;43957;-70
2022/05/29 06:52:20;;;;;;;3.13;2.70;;;20.70;60.70;;;;;;5087633;27;43972;-70
2022/05/29 06:54:48;;;;;;;2.10;2.00;;;20.70;60.80;;;;;;5087460;27;43993;-70
2022/05/29 06:57:36;;;;;;;2.40;2.30;;;20.60;60.80;;;;;;5093392;27;43876;-70
2022/05/29 07:08:24;;;;;;;2.80;2.43;;;20.60;61.10;;;;;;5087244;28;43984;-70
2022/05/29 07:10:51;;;;;;;2.50;2.30;;;20.60;61.10;;;;;;5087608;28;43745;-70
2022/05/29 07:13:19;;;;;;;2.37;2.27;;;20.60;61.10;;;;;;5074318;28;45144;-69
2022/05/29 07:15:47;;;;;;;2.83;2.63;;;20.60;61.20;;;;;;5086919;28;44101;-70
2022/05/29 07:18:15;;;;;;;2.80;2.60;;;20.60;62.00;;;;;;5073280;27;43980;-71
2022/05/29 07:20:43;;;;;;;2.70;2.30;;;20.70;62.40;;;;;;5111032;27;43895;-69
2022/05/29 07:23:11;;;;;;;2.13;2.03;;;20.90;62.30;;;;;;5110467;27;44102;-70
2022/05/29 07:25:40;;;;;;;2.50;2.30;;;21.00;61.70;;;;;;5110390;27;43956;-69
2022/05/29 07:28:09;;;;;;;2.47;2.30;;;21.20;61.00;;;;;;5110590;27;43998;-69
2022/05/29 07:30:37;;;;;;;2.53;2.40;;;21.40;60.50;;;;;;5108455;27;43848;-70
2022/05/29 07:33:05;;;;;;;4.30;2.50;;;21.60;60.10;;;;;;5072181;27;46485;-70
2022/05/29 07:35:33;;;;;;;2.70;2.37;;;21.70;59.70;;;;;;5090082;27;43549;-70
2022/05/29 07:38:01;;;;;;;2.47;2.27;;;21.80;59.40;;;;;;5090684;27;43405;-70
2022/05/29 07:40:29;;;;;;;2.20;2.10;;;21.90;59.20;;;;;;5100300;27;43935;-70
2022/05/29 07:45:45;;;;;;;2.27;2.10;;;21.90;58.90;;;;;;5090324;27;43885;-70
2022/05/29 07:48:14;;;;;;;2.23;2.03;;;21.80;59.30;;;;;;5097105;27;43490;-70
2022/05/29 07:50:42;;;;;;;2.53;2.33;;;21.60;59.00;;;;;;5090902;27;44294;-71
2022/05/29 07:53:10;;;;;;;2.20;2.10;;;21.40;59.20;;;;;;5071875;28;47319;-71
2022/05/29 07:55:38;;;;;;;2.27;2.17;;;21.20;59.50;;;;;;5109585;27;44029;-70
2022/05/29 07:58:07;;;;;;;2.30;2.20;;;21.00;59.80;;;;;;5110124;27;43903;-70
2022/05/29 08:00:38;;;;;;;2.13;2.03;;;20.90;60.10;;;;;;5110633;27;43899;-70
2022/05/29 08:03:06;;;;;;;2.30;2.20;;;20.90;60.50;;;;;;5103377;27;43939;-70
2022/05/29 08:05:36;;;;;;;2.20;2.00;;;20.80;60.70;;;;;;5089749;27;43966;-69
2022/05/29 08:08:08;;;;;;;1.93;1.83;;;20.70;60.80;;;;;;5103614;27;44100;-70
2022/05/29 08:10:36;;;;;;;1.90;1.80;;;20.70;61.00;;;;;;5097840;27;43951;-70
2022/05/29 08:13:05;;;;;;;2.20;2.10;;;20.60;61.10;;;;;;5109644;27;43981;-70
2022/05/29 08:15:35;;;;;;;2.00;1.90;;;20.60;61.10;;;;;;5109908;27;43914;-70
2022/05/29 08:18:03;;;;;;;2.07;1.97;;;20.60;61.30;;;;;;5083493;27;43979;-70
2022/05/29 08:20:31;;;;;;;2.10;2.00;;;20.60;61.40;;;;;;5104599;27;43849;-70
2022/05/29 08:22:59;;;;;;;2.20;1.93;;;20.60;61.40;;;;;;5090181;27;46249;-70
2022/05/29 08:30:59;;;;;;;1.80;1.70;;;20.50;61.40;;;;;;5090303;27;44157;-69
2022/05/29 08:33:28;;;;;;;2.20;2.10;;;20.50;61.50;;;;;;5089895;27;43878;-70
2022/05/29 08:36:00;;;;;;;1.70;1.70;;;20.50;61.40;;;;;;5089527;27;44085;-69
2022/05/29 08:38:28;;;;;;;2.13;2.03;;;20.60;61.60;;;;;;5089867;27;43885;-70
2022/05/29 08:40:57;;;;;;;2.20;2.00;;;20.50;62.10;;;;;;5089829;27;43990;-70
2022/05/29 08:43:27;;;;;;;1.70;1.60;;;20.60;62.80;;;;;;5089352;27;44002;-70
2022/05/29 08:45:55;;;;;;;2.00;1.90;;;20.70;62.40;;;;;;5089057;28;44019;-70
2022/05/29 08:48:25;;;;;;;1.80;1.70;;;20.90;62.00;;;;;;5074252;28;44011;-70
2022/05/29 08:51:00;;;;;;;1.67;1.67;;;21.10;61.60;;;;;;5089466;28;43954;-70
2022/05/29 08:53:34;;;;;;;1.80;1.70;;;21.30;61.00;;;;;;5088851;28;44651;-70
2022/05/29 08:56:07;;;;;;;1.73;1.70;;;21.50;60.70;;;;;;5089059;28;43971;-70
2022/05/29 08:58:37;;;;;;;1.87;1.77;;;21.60;60.10;;;;;;5089039;28;43988;-70
2022/05/29 09:01:11;;;;;;;2.63;1.90;;;21.70;59.80;;;;;;5089346;28;43361;-69
2022/05/29 09:03:50;;;;;;;1.80;1.73;;;21.70;59.40;;;;;;5088854;28;43887;-70
2022/05/29 09:06:19;;;;;;;1.70;1.63;;;21.80;59.60;;;;;;5088783;28;43513;-70
2022/05/29 09:08:49;;;;;;;1.70;1.60;;;21.70;59.70;;;;;;5088906;27;43930;-70
2022/05/29 09:11:20;;;;;;;1.53;1.53;;;21.50;59.40;;;;;;5089504;27;43482;-69
2022/05/29 09:13:50;;;;;;;1.70;1.60;;;21.30;59.50;;;;;;5102134;27;44009;-70
2022/05/29 09:16:19;;;;;;;1.70;1.60;;;21.10;59.90;;;;;;5095347;27;44006;-69
2022/05/29 09:19:00;;;;;;;1.80;1.67;;;21.00;60.20;;;;;;5089092;27;43358;-70
2022/05/29 09:21:45;;;;;;;1.67;1.67;;;20.90;60.60;;;;;;5070929;28;43506;-70
2022/05/29 09:24:26;;;;;;;1.60;1.60;;;20.80;60.90;;;;;;5100069;27;43959;-70
2022/05/29 09:26:54;;;;;;;1.83;1.73;;;20.70;61.10;;;;;;5108587;27;44113;-70
2022/05/29 09:29:22;;;;;;;1.90;1.60;;;20.60;61.20;;;;;;5108552;27;44047;-70
2022/05/29 09:31:50;;;;;;;1.73;1.70;;;20.60;61.40;;;;;;5109042;27;43993;-71
2022/05/29 09:34:19;;;;;;;1.60;1.50;;;20.60;61.50;;;;;;5108176;27;43849;-69
2022/05/29 09:36:52;;;;;;;1.50;1.40;;;20.50;61.60;;;;;;5088428;27;43415;-70
2022/05/29 09:39:24;;;;;;;1.40;1.40;;;20.50;61.60;;;;;;5102549;27;43303;-70
2022/05/29 09:41:56;;;;;;;1.70;1.70;;;20.50;61.60;;;;;;5108511;27;43808;-69
2022/05/29 09:44:25;;;;;;;1.83;1.80;;;20.50;61.70;;;;;;5099962;27;44051;-71
2022/05/29 09:46:55;;;;;;;1.47;1.47;;;20.50;61.70;;;;;;5087906;27;43999;-70
2022/05/29 09:49:45;;;;;;;1.60;1.50;;;20.50;61.80;;;;;;5088655;27;43505;-70
2022/05/29 09:52:15;;;;;;;1.50;1.50;;;20.50;61.90;;;;;;5100696;27;43946;-70
2022/05/29 09:54:45;;;;;;;1.70;1.60;;;20.50;61.90;;;;;;5107804;27;44000;-70
2022/05/29 09:57:14;;;;;;;1.47;1.40;;;20.50;62.70;;;;;;5108180;27;43877;-70
2022/05/29 09:59:44;;;;;;;1.73;1.63;;;20.60;63.10;;;;;;5108255;27;44090;-69
2022/05/29 10:02:25;;;;;;;1.70;1.60;;;20.70;63.00;;;;;;5108173;27;43925;-70
2022/05/29 10:04:56;;;;;;;1.50;1.50;;;20.90;62.40;;;;;;5108012;27;43930;-70
2022/05/29 10:07:32;;;;;;;1.50;1.40;;;21.10;61.90;;;;;;5107685;27;43955;-70
2022/05/29 10:10:01;;;;;;;1.33;1.33;;;21.20;61.30;;;;;;5107936;27;43403;-70
2022/05/29 10:12:44;;;;;;;1.30;1.30;;;21.40;60.90;;;;;;5089505;27;44549;-70
2022/05/29 10:15:33;;;;;;;1.70;1.60;;;21.50;60.40;;;;;;5077438;28;45768;-70
2022/05/29 10:18:03;;;;;;;1.47;1.47;;;21.70;60.10;;;;;;5088095;27;44070;-70
2022/05/29 10:20:34;;;;;;;1.70;1.70;;;21.80;59.70;;;;;;5089046;27;43994;-70
2022/05/29 10:23:03;;;;;;;1.40;1.40;;;21.80;59.40;;;;;;5089079;27;44253;-69
2022/05/29 10:25:33;;;;;;;1.33;1.33;;;21.90;59.30;;;;;;5107606;27;43917;-70
2022/05/29 10:28:02;;;;;;;1.50;1.47;;;21.80;59.50;;;;;;5107554;27;43898;-69
2022/05/29 10:30:32;;;;;;;1.30;1.30;;;21.60;59.60;;;;;;5107681;27;43989;-69
2022/05/29 10:33:02;;;;;;;1.30;1.30;;;21.40;59.50;;;;;;5107735;27;43872;-70
2022/05/29 10:35:32;;;;;;;1.80;1.70;;;21.20;59.70;;;;;;5107420;27;44003;-70
2022/05/29 10:38:22;;;;;;;1.60;1.50;;;21.10;60.10;;;;;;5090929;27;44143;-70
2022/05/29 10:40:51;;;;;;;1.40;1.40;;;20.90;60.50;;;;;;5069564;28;43885;-70
2022/05/29 10:43:39;;;;;;;1.33;1.33;;;20.80;60.80;;;;;;5087803;27;43872;-70
2022/05/29 10:46:11;;;;;;;1.53;1.43;;;20.70;61.10;;;;;;5087693;27;43907;-70
2022/05/29 10:49:15;;;;;;;1.40;1.40;;;20.70;61.40;;;;;;5087820;27;43389;-70
2022/05/29 10:51:55;;;;;;;1.40;1.40;;;20.60;61.50;;;;;;5051711;27;44023;-69
2022/05/29 10:54:31;;;;;;;1.13;1.13;;;20.60;61.70;;;;;;5103968;27;43911;-70
2022/05/29 10:57:09;;;;;;;1.27;1.27;;;20.60;61.80;;;;;;5090029;27;43955;-70
2022/05/29 10:59:59;;;;;;;1.20;1.20;;;20.50;61.90;;;;;;5069335;28;45057;-70
2022/05/29 11:05:37;;;;;;;1.20;1.20;;;20.50;62.00;;;;;;5087847;27;44025;-70
2022/05/29 11:08:17;;;;;;;1.20;1.20;;;20.50;62.10;;;;;;5087436;27;44012;-70
2022/05/29 11:10:55;;;;;;;1.10;1.10;;;20.50;62.20;;;;;;5087447;27;44005;-69
2022/05/29 11:13:37;;;;;;;1.40;1.40;;;20.50;62.30;;;;;;5087344;27;43927;-70
2022/05/29 11:16:09;;;;;;;1.40;1.40;;;20.50;62.30;;;;;;5087838;27;44108;-70
2022/05/29 11:19:08;;;;;;;1.20;1.20;;;20.50;62.60;;;;;;5106857;27;44606;-69
2022/05/29 11:21:46;;;;;;;1.10;1.10;;;20.50;63.70;;;;;;5102395;27;44307;-70
2022/05/29 11:24:28;;;;;;;1.87;1.73;;;20.70;63.60;;;;;;5106733;27;44012;-70
2022/05/29 11:27:02;;;;;;;3.03;1.77;;;20.80;60.60;;;;;;5087479;27;43864;-70
2022/05/29 11:29:38;;;;;;;3.37;1.57;;;20.90;55.60;;;;;;5086705;28;44111;-70
2022/05/29 11:32:27;;;;;;;1.60;1.60;;;21.10;55.30;;;;;;5086671;28;44110;-70
2022/05/29 11:35:09;;;;;;;1.70;1.60;;;21.20;57.00;;;;;;5086731;28;43970;-70
2022/05/29 11:37:58;;;;;;;1.60;1.50;;;21.40;57.60;;;;;;5087272;28;43975;-70
2022/05/29 11:40:29;;;;;;;1.70;1.60;;;21.50;57.80;;;;;;5086864;27;44935;-70
2022/05/29 11:43:00;;;;;;;1.97;1.77;;;21.60;57.80;;;;;;5090013;27;43902;-70
2022/05/29 11:51:07;;;;;;;2.30;1.63;;;21.60;58.10;;;;;;5106477;27;43913;-70
2022/05/29 11:51:11;;;;;;;1.93;1.70;;;21.30;58.20;;;;;;5097705;27;43927;-71
2022/05/29 11:53:42;;;;;;;1.50;1.40;;;21.10;58.60;;;;;;5093692;27;43943;-72
2022/05/29 11:56:15;;;;;;;1.30;1.30;;;20.90;59.00;;;;;;5087129;27;43860;-70
2022/05/29 11:58:45;;;;;;;1.80;1.70;;;20.80;59.40;;;;;;5087779;27;43975;-70
2022/05/29 12:01:15;;;;;;;1.93;1.60;;;20.70;59.70;;;;;;5098590;27;45110;-70
2022/05/29 12:03:46;;;;;;;1.80;1.70;;;20.60;59.90;;;;;;5076955;28;44695;-71
2022/05/29 12:06:16;;;;;;;2.23;1.60;;;20.60;60.10;;;;;;5090372;27;43971;-70
2022/05/29 12:08:48;;;;;;;1.90;1.80;;;20.50;60.30;;;;;;5090725;27;44006;-70
2022/05/29 12:11:35;;;;;;;1.43;1.43;;;20.50;60.50;;;;;;5109710;27;43947;-70
2022/05/29 12:14:05;;;;;;;1.40;1.40;;;20.50;60.70;;;;;;5089621;28;43974;-69
2022/05/29 12:16:34;;;;;;;1.37;1.37;;;20.50;60.80;;;;;;5089573;28;44018;-70
2022/05/29 12:19:05;;;;;;;1.50;1.50;;;20.50;60.90;;;;;;5090447;28;44001;-69
2022/05/29 12:21:36;;;;;;;1.87;1.77;;;20.40;60.90;;;;;;5089883;28;43905;-70
2022/05/29 12:24:13;;;;;;;1.67;1.67;;;20.40;61.00;;;;;;5089611;28;43470;-70
2022/05/29 12:26:44;;;;;;;2.40;1.53;;;20.40;61.10;;;;;;5089845;28;43386;-70
2022/05/29 12:29:15;;;;;;;1.70;1.60;;;20.40;61.20;;;;;;5089959;28;43987;-70
2022/05/29 12:31:44;;;;;;;1.67;1.67;;;20.40;61.10;;;;;;5089661;28;44602;-70
2022/05/29 12:34:16;;;;;;;1.60;1.50;;;20.40;61.10;;;;;;5089411;28;44046;-71
2022/05/29 12:37:11;;;;;;;1.70;1.60;;;20.40;61.70;;;;;;5102610;27;43940;-70
2022/05/29 12:39:49;;;;;;;1.53;1.53;;;20.50;62.20;;;;;;5109982;27;43989;-70
2022/05/29 12:42:39;;;;;;;1.83;1.73;;;20.60;62.20;;;;;;5109302;27;44069;-70
2022/05/29 12:45:24;;;;;;;1.63;1.60;;;20.80;61.80;;;;;;5090780;27;43766;-70
2022/05/29 12:48:27;;;;;;;1.40;1.40;;;21.00;61.30;;;;;;5092738;27;43346;-69
2022/05/29 12:51:03;;;;;;;1.63;1.60;;;21.20;60.60;;;;;;5104826;27;43983;-71
2022/05/29 12:54:12;;;;;;;1.60;1.60;;;21.30;59.90;;;;;;5109103;27;43958;-69
2022/05/29 12:56:52;;;;;;;1.80;1.70;;;21.50;59.60;;;;;;5080944;27;44602;-70
2022/05/29 12:59:32;;;;;;;1.50;1.50;;;21.60;59.00;;;;;;5089605;27;43380;-70
2022/05/29 13:02:16;;;;;;;1.50;1.50;;;21.70;58.80;;;;;;5089797;27;43958;-70
2022/05/29 13:05:01;;;;;;;1.83;1.73;;;21.70;58.40;;;;;;5095980;27;44252;-70
2022/05/29 13:07:30;;;;;;;1.50;1.50;;;21.80;58.60;;;;;;5089367;27;43744;-70
2022/05/29 13:10:21;;;;;;;1.57;1.57;;;21.70;58.60;;;;;;5089360;27;44007;-69
2022/05/29 13:12:50;;;;;;;1.70;1.60;;;21.60;58.60;;;;;;5089580;27;43904;-70
2022/05/29 13:15:30;;;;;;;1.80;1.80;;;21.30;58.40;;;;;;5088458;27;44149;-71
2022/05/29 13:18:03;;;;;;;1.40;1.40;;;21.10;58.00;;;;;;5089134;27;43929;-70
2022/05/29 13:20:31;;;;;;;1.53;1.53;;;21.00;59.20;;;;;;5090567;27;44102;-70
2022/05/29 13:23:01;;;;;;;1.70;1.60;;;20.80;59.50;;;;;;5109055;27;43450;-70
2022/05/29 13:25:30;;;;;;;1.70;1.60;;;20.70;59.80;;;;;;5106754;27;44288;-71
2022/05/29 13:27:59;;;;;;;1.93;1.80;;;20.60;59.80;;;;;;5088841;27;43479;-71
2022/05/29 13:31:03;;;;;;;1.57;1.47;;;20.60;60.10;;;;;;5091026;27;44031;-70
2022/05/29 13:33:53;;;;;;;1.73;1.67;;;20.50;60.30;;;;;;5098046;27;43458;-70
2022/05/29 13:37:07;;;;;;;1.90;1.77;;;20.50;60.20;;;;;;5103648;27;43965;-70
2022/05/29 13:40:03;;;;;;;1.60;1.50;;;20.50;60.40;;;;;;5108842;27;43883;-70
2022/05/29 13:42:37;;;;;;;3.70;1.70;;;20.40;60.40;;;;;;5108355;27;43839;-70
2022/05/29 13:45:42;;;;;;;1.50;1.50;;;20.40;61.00;;;;;;5088565;28;44089;-70